Time;durP1;ratioP1;P1;durP2;ratioP2;P2;SDS_P1;SDS_P2;PMS_P1;PMS_P2;Temp;Humidity;BMP_temperature;BMP_pressure;BME280_temperature;BME280_humidity;BME280_pressure;Samples;Min_cycle;Max_cycle;Signal;HPM_P1;HPM_P2
2022/11/14 00:02:27;;;;;;;99.03;44.93;;;6.70;99.90;;;;;;5184720;28;20184;-50
2022/11/14 00:04:58;;;;;;;97.57;44.27;;;6.60;99.90;;;;;;5183722;28;20191;-50
2022/11/14 00:07:33;;;;;;;89.80;43.57;;;6.60;99.90;;;;;;5182297;28;20212;-50
2022/11/14 00:10:04;;;;;;;91.37;42.20;;;6.50;99.90;;;;;;5176939;28;20185;-50
2022/11/14 00:12:34;;;;;;;95.13;44.80;;;6.60;99.90;;;;;;5177287;28;20435;-51
2022/11/14 00:15:05;;;;;;;95.87;45.43;;;6.50;99.90;;;;;;5180889;28;20566;-49
2022/11/14 00:17:37;;;;;;;96.07;46.23;;;6.50;99.90;;;;;;5172232;28;20220;-49
2022/11/14 00:20:09;;;;;;;93.93;43.57;;;6.40;99.90;;;;;;5161528;28;20430;-51
2022/11/14 00:22:40;;;;;;;94.83;42.03;;;6.40;99.90;;;;;;5183142;28;20469;-50
2022/11/14 00:25:11;;;;;;;95.13;45.23;;;6.40;99.90;;;;;;5189085;28;20462;-48
2022/11/14 00:27:41;;;;;;;107.83;45.50;;;6.40;99.90;;;;;;5181817;28;20711;-49
2022/11/14 00:30:12;;;;;;;99.53;45.73;;;6.40;99.90;;;;;;5183640;28;20261;-50
2022/11/14 00:32:43;;;;;;;114.13;47.30;;;6.40;99.90;;;;;;5184521;28;20173;-50
2022/11/14 00:35:13;;;;;;;105.93;46.67;;;6.40;99.90;;;;;;5169244;28;20187;-50
2022/11/14 00:37:44;;;;;;;99.37;44.50;;;6.40;99.90;;;;;;5175810;28;20761;-49
2022/11/14 00:40:15;;;;;;;106.80;47.90;;;6.40;99.90;;;;;;5177286;28;20187;-50
2022/11/14 00:42:46;;;;;;;102.70;45.83;;;6.40;99.90;;;;;;5184742;28;20756;-49
2022/11/14 00:45:16;;;;;;;106.40;46.70;;;6.40;99.90;;;;;;5183705;28;20653;-47
2022/11/14 00:47:47;;;;;;;104.77;47.47;;;6.40;99.90;;;;;;5169572;28;20196;-48
2022/11/14 00:50:17;;;;;;;110.47;47.00;;;6.40;99.90;;;;;;5188024;28;20190;-48
2022/11/14 00:52:48;;;;;;;133.00;49.43;;;6.30;99.90;;;;;;5184110;28;20184;-47
2022/11/14 00:55:19;;;;;;;114.27;47.80;;;6.30;99.90;;;;;;5186505;28;20245;-49
2022/11/14 00:57:49;;;;;;;98.30;47.30;;;6.30;99.90;;;;;;5179789;28;20206;-49
2022/11/14 01:00:20;;;;;;;111.20;50.43;;;6.30;99.90;;;;;;5170171;28;20186;-49
2022/11/14 01:02:50;;;;;;;136.93;49.37;;;6.20;99.90;;;;;;5185394;28;20636;-51
2022/11/14 01:05:22;;;;;;;101.80;45.70;;;6.20;99.90;;;;;;5181220;28;20187;-49
2022/11/14 01:07:53;;;;;;;118.43;50.77;;;6.20;99.90;;;;;;5186231;28;20694;-48
2022/11/14 01:10:24;;;;;;;120.77;50.17;;;6.20;99.90;;;;;;5186100;28;20430;-49
2022/11/14 01:12:54;;;;;;;124.13;51.40;;;6.20;99.90;;;;;;5179261;28;20687;-49
2022/11/14 01:15:25;;;;;;;112.93;47.43;;;6.20;99.90;;;;;;5182788;28;20188;-49
2022/11/14 01:17:55;;;;;;;123.80;48.93;;;6.20;99.90;;;;;;5178921;28;20296;-49
2022/11/14 01:20:26;;;;;;;106.53;46.90;;;6.10;99.90;;;;;;5174927;28;20191;-48
2022/11/14 01:22:57;;;;;;;116.83;48.70;;;6.10;99.90;;;;;;5182259;28;20226;-50
2022/11/14 01:25:27;;;;;;;124.97;50.80;;;6.10;99.90;;;;;;5190733;28;20266;-52
2022/11/14 01:27:58;;;;;;;121.73;49.50;;;6.00;99.90;;;;;;5174513;28;20203;-49
2022/11/14 01:30:28;;;;;;;131.30;51.93;;;6.00;99.90;;;;;;5181494;28;20236;-49
2022/11/14 01:32:59;;;;;;;133.30;55.40;;;6.10;99.90;;;;;;5184517;28;20544;-50
2022/11/14 01:35:31;;;;;;;115.27;48.97;;;6.00;99.90;;;;;;5174915;28;20214;-50
2022/11/14 01:38:04;;;;;;;110.33;49.60;;;6.00;99.90;;;;;;5185475;28;20213;-50
2022/11/14 01:40:41;;;;;;;136.97;53.50;;;6.00;99.90;;;;;;5183647;28;20434;-50
2022/11/14 01:43:15;;;;;;;131.37;52.67;;;5.90;99.90;;;;;;5182015;28;20527;-48
2022/11/14 01:45:57;;;;;;;121.73;51.90;;;5.90;99.90;;;;;;5179741;28;20453;-50
2022/11/14 01:48:42;;;;;;;134.53;52.67;;;5.90;99.90;;;;;;5169750;28;20455;-49
2022/11/14 01:51:26;;;;;;;144.23;51.77;;;5.80;99.90;;;;;;5181356;28;20429;-51
2022/11/14 01:54:01;;;;;;;149.43;52.67;;;5.90;99.90;;;;;;5169131;28;20458;-51
2022/11/14 01:56:40;;;;;;;143.07;51.90;;;5.80;99.90;;;;;;5186705;28;20421;-50
2022/11/14 01:59:23;;;;;;;165.30;59.37;;;5.80;99.90;;;;;;5185068;28;20814;-50
2022/11/14 02:01:56;;;;;;;144.63;53.47;;;5.80;99.90;;;;;;5168452;28;20965;-49
2022/11/14 02:04:31;;;;;;;140.67;53.20;;;5.80;99.90;;;;;;5175559;28;20443;-47
2022/11/14 02:07:04;;;;;;;151.50;56.50;;;5.80;99.90;;;;;;5157261;28;20954;-47
2022/11/14 02:09:37;;;;;;;138.23;54.23;;;5.80;99.90;;;;;;5184445;28;20961;-50
2022/11/14 02:12:12;;;;;;;141.03;55.47;;;5.90;99.90;;;;;;5178801;28;20422;-49
2022/11/14 02:14:45;;;;;;;136.27;53.83;;;5.80;99.90;;;;;;5179120;28;20566;-51
2022/11/14 02:17:18;;;;;;;139.50;53.60;;;5.90;99.90;;;;;;5180833;28;20438;-49
2022/11/14 02:20:13;;;;;;;147.00;55.50;;;5.90;99.90;;;;;;5185592;28;20443;-48
2022/11/14 02:22:44;;;;;;;135.60;52.20;;;5.90;99.90;;;;;;5180647;28;20457;-48
2022/11/14 02:25:17;;;;;;;144.30;52.20;;;6.00;99.90;;;;;;5181860;28;20537;-48
2022/11/14 02:27:49;;;;;;;148.07;54.87;;;6.00;99.90;;;;;;5186036;28;20311;-48
2022/11/14 02:30:21;;;;;;;129.47;52.83;;;6.00;99.90;;;;;;5182653;28;20464;-48
2022/11/14 02:32:52;;;;;;;122.10;51.33;;;6.10;99.90;;;;;;5185746;28;20437;-48
2022/11/14 02:35:23;;;;;;;153.20;52.93;;;6.00;99.90;;;;;;5180411;28;20440;-50
2022/11/14 02:37:54;;;;;;;146.20;52.80;;;6.10;99.90;;;;;;5175562;28;20222;-49
2022/11/14 02:40:24;;;;;;;150.63;52.50;;;6.00;99.90;;;;;;5182369;28;20286;-49
2022/11/14 02:42:55;;;;;;;138.13;52.67;;;6.10;99.90;;;;;;5178844;28;20191;-48
2022/11/14 02:45:26;;;;;;;122.27;49.03;;;6.10;99.90;;;;;;5180776;28;20186;-47
2022/11/14 02:47:57;;;;;;;142.17;50.10;;;6.20;99.90;;;;;;5176492;28;20226;-49
2022/11/14 02:50:28;;;;;;;138.53;51.50;;;6.10;99.90;;;;;;5183681;28;20443;-48
2022/11/14 02:52:58;;;;;;;133.43;51.33;;;6.10;99.90;;;;;;5183283;28;20178;-48
2022/11/14 02:55:29;;;;;;;132.43;50.50;;;6.10;99.90;;;;;;5181049;28;20441;-47
2022/11/14 02:58:00;;;;;;;125.47;50.37;;;6.10;99.90;;;;;;5180531;28;20235;-48
2022/11/14 03:00:30;;;;;;;145.30;52.37;;;6.10;99.90;;;;;;5182772;28;20210;-47
2022/11/14 03:03:01;;;;;;;137.63;49.67;;;6.00;99.90;;;;;;5179555;28;20215;-49
2022/11/14 03:05:31;;;;;;;146.10;50.93;;;6.00;99.90;;;;;;5174380;28;20194;-50
2022/11/14 03:08:02;;;;;;;136.07;51.77;;;6.00;99.90;;;;;;5182088;28;20668;-49
2022/11/14 03:10:33;;;;;;;138.30;51.27;;;5.90;99.90;;;;;;5184605;28;20182;-50
2022/11/14 03:13:03;;;;;;;144.83;51.40;;;5.90;99.90;;;;;;5177883;28;20203;-50
2022/11/14 03:15:36;;;;;;;151.27;53.50;;;5.90;99.90;;;;;;5172592;28;20218;-49
2022/11/14 03:18:07;;;;;;;149.83;53.60;;;5.80;99.90;;;;;;5182751;28;20235;-49
2022/11/14 03:20:38;;;;;;;150.93;55.00;;;5.90;99.90;;;;;;5180718;28;20473;-48
2022/11/14 03:23:09;;;;;;;149.70;50.97;;;5.90;99.90;;;;;;5183119;28;20194;-48
2022/11/14 03:25:40;;;;;;;154.40;54.73;;;5.80;99.90;;;;;;5179137;28;20440;-49
2022/11/14 03:28:10;;;;;;;138.20;51.40;;;5.80;99.90;;;;;;5179510;28;20451;-48
2022/11/14 03:30:41;;;;;;;153.53;54.47;;;5.80;99.90;;;;;;5179313;28;20188;-50
2022/11/14 03:33:11;;;;;;;156.73;54.67;;;5.80;99.90;;;;;;5176558;28;20693;-49
2022/11/14 03:35:43;;;;;;;163.70;55.40;;;5.80;99.90;;;;;;5183935;28;20246;-48
2022/11/14 03:38:13;;;;;;;135.43;50.87;;;5.90;99.90;;;;;;5172950;28;20292;-48
2022/11/14 03:40:44;;;;;;;147.60;51.40;;;5.80;99.90;;;;;;5181768;28;20533;-49
2022/11/14 03:43:16;;;;;;;158.37;51.93;;;5.80;99.90;;;;;;5166731;28;20189;-49
2022/11/14 03:45:47;;;;;;;145.40;48.93;;;5.80;99.90;;;;;;5181662;28;20183;-48
2022/11/14 03:48:17;;;;;;;141.17;53.57;;;5.80;99.90;;;;;;5182745;28;20449;-50
2022/11/14 03:50:49;;;;;;;138.00;55.67;;;5.70;99.90;;;;;;5166652;28;20429;-49
2022/11/14 03:53:20;;;;;;;156.30;52.70;;;5.70;99.90;;;;;;5183487;28;20215;-49
2022/11/14 03:55:51;;;;;;;151.73;54.50;;;5.60;99.90;;;;;;5181444;28;20518;-48
2022/11/14 03:58:21;;;;;;;138.27;53.97;;;5.60;99.90;;;;;;5169695;28;20461;-49
2022/11/14 04:00:54;;;;;;;164.53;54.97;;;5.60;99.90;;;;;;5170151;28;20433;-49
2022/11/14 04:03:25;;;;;;;132.33;49.80;;;5.60;99.90;;;;;;5182842;28;20334;-50
2022/11/14 04:05:56;;;;;;;138.03;55.07;;;5.60;99.90;;;;;;5182563;28;20433;-47
2022/11/14 04:08:26;;;;;;;162.27;53.00;;;5.70;99.90;;;;;;5183024;28;20205;-48
2022/11/14 04:10:57;;;;;;;147.17;54.53;;;5.70;99.90;;;;;;5179392;28;20186;-50
2022/11/14 04:13:27;;;;;;;177.53;56.20;;;5.70;99.90;;;;;;5182413;28;20229;-49
2022/11/14 04:15:58;;;;;;;156.63;53.53;;;5.70;99.90;;;;;;5184341;28;20255;-48
2022/11/14 04:18:29;;;;;;;156.33;53.07;;;5.70;99.90;;;;;;5195029;23;20235;-48
2022/11/14 04:21:00;;;;;;;148.63;52.27;;;5.70;99.90;;;;;;5191671;28;20439;-47
2022/11/14 04:23:31;;;;;;;149.00;53.87;;;5.70;99.90;;;;;;5192016;28;20931;-46
2022/11/14 04:26:02;;;;;;;157.67;54.83;;;5.70;99.90;;;;;;5193977;28;20534;-47
2022/11/14 04:28:33;;;;;;;159.80;55.07;;;5.60;99.90;;;;;;5190675;28;20505;-48
2022/11/14 04:31:05;;;;;;;142.57;51.77;;;5.60;99.90;;;;;;5171445;28;21026;-47
2022/11/14 04:33:36;;;;;;;150.43;54.50;;;5.60;99.90;;;;;;5188646;28;20464;-47
2022/11/14 04:36:07;;;;;;;176.77;54.47;;;5.50;99.90;;;;;;5188535;28;20779;-47
2022/11/14 04:38:38;;;;;;;148.70;52.23;;;5.50;99.90;;;;;;5190353;28;20686;-48
2022/11/14 04:41:09;;;;;;;155.70;54.80;;;5.50;99.90;;;;;;5189621;28;20435;-46
2022/11/14 04:43:40;;;;;;;160.20;54.60;;;5.40;99.90;;;;;;5186113;28;20452;-46
2022/11/14 04:46:11;;;;;;;163.60;54.87;;;5.40;99.90;;;;;;5186048;28;20999;-47
2022/11/14 04:48:42;;;;;;;170.80;55.07;;;5.30;99.90;;;;;;5182785;28;20470;-46
2022/11/14 04:51:13;;;;;;;168.03;56.03;;;5.30;99.90;;;;;;5187039;28;20196;-46
2022/11/14 04:53:44;;;;;;;185.43;59.40;;;5.30;99.90;;;;;;5189480;28;20475;-46
2022/11/14 04:56:15;;;;;;;161.30;55.43;;;5.30;99.90;;;;;;5188195;28;20189;-47
2022/11/14 04:58:46;;;;;;;164.50;59.93;;;5.30;99.90;;;;;;5185977;28;20823;-47
2022/11/14 05:01:17;;;;;;;169.70;57.47;;;5.30;99.90;;;;;;5185039;28;20446;-46
2022/11/14 05:03:48;;;;;;;168.50;55.67;;;5.40;99.90;;;;;;5183680;28;20206;-47
2022/11/14 05:06:18;;;;;;;171.47;56.20;;;5.40;99.90;;;;;;5188298;28;20433;-48
2022/11/14 05:08:49;;;;;;;180.50;58.20;;;5.40;99.90;;;;;;5186654;28;20213;-46
2022/11/14 05:11:20;;;;;;;170.33;57.40;;;5.40;99.90;;;;;;5186462;28;20282;-46
2022/11/14 05:13:52;;;;;;;190.10;58.30;;;5.40;99.90;;;;;;5180314;28;20213;-45
2022/11/14 05:16:24;;;;;;;163.73;56.27;;;5.40;99.90;;;;;;5188743;28;20442;-48
2022/11/14 05:18:54;;;;;;;189.07;60.43;;;5.50;99.90;;;;;;5187988;28;20487;-46
2022/11/14 05:21:25;;;;;;;175.00;55.67;;;5.50;99.90;;;;;;5187833;28;20898;-46
2022/11/14 05:23:56;;;;;;;174.70;56.97;;;5.50;99.90;;;;;;5184720;28;20199;-46
2022/11/14 05:26:27;;;;;;;161.07;55.57;;;5.40;99.90;;;;;;5188903;28;20198;-47
2022/11/14 05:28:58;;;;;;;170.43;55.47;;;5.40;99.90;;;;;;5188457;28;20983;-47
2022/11/14 05:31:29;;;;;;;191.17;57.00;;;5.40;99.90;;;;;;5182330;28;20466;-47
2022/11/14 05:34:00;;;;;;;178.90;60.00;;;5.40;99.90;;;;;;5188475;28;20217;-48
2022/11/14 05:36:34;;;;;;;164.90;57.00;;;5.40;99.90;;;;;;5183685;28;20190;-47
2022/11/14 05:39:05;;;;;;;183.80;57.30;;;5.40;99.90;;;;;;5178455;28;20484;-49
2022/11/14 05:41:35;;;;;;;186.20;60.33;;;5.40;99.90;;;;;;5187729;28;20469;-47
2022/11/14 05:44:06;;;;;;;168.97;56.83;;;5.40;99.90;;;;;;5189012;28;20268;-46
2022/11/14 05:46:37;;;;;;;200.30;58.80;;;5.50;99.90;;;;;;5178366;28;20248;-48
2022/11/14 05:49:08;;;;;;;161.53;55.33;;;5.50;99.90;;;;;;5180802;28;21000;-46
2022/11/14 05:51:39;;;;;;;174.77;56.07;;;5.50;99.90;;;;;;5187323;28;20439;-49
2022/11/14 05:54:13;;;;;;;160.57;54.10;;;5.60;99.90;;;;;;5184630;28;20683;-47
2022/11/14 05:56:43;;;;;;;177.20;53.77;;;5.60;99.90;;;;;;5177401;28;20193;-47
2022/11/14 05:59:14;;;;;;;174.70;54.53;;;5.60;99.90;;;;;;5188891;28;20822;-45
2022/11/14 06:01:45;;;;;;;169.50;53.90;;;5.60;99.90;;;;;;5182141;28;20250;-50
2022/11/14 06:04:16;;;;;;;161.90;50.87;;;5.50;99.90;;;;;;5178540;28;20189;-47
2022/11/14 06:06:47;;;;;;;176.70;55.97;;;5.50;99.90;;;;;;5183785;28;20205;-47
2022/11/14 06:09:17;;;;;;;185.67;54.47;;;5.50;99.90;;;;;;5186811;28;20544;-48
2022/11/14 06:11:48;;;;;;;166.07;54.60;;;5.60;99.90;;;;;;5184329;28;20195;-49
2022/11/14 06:14:19;;;;;;;175.97;55.20;;;5.50;99.90;;;;;;5189414;28;20332;-47
2022/11/14 06:16:50;;;;;;;177.23;56.97;;;5.60;99.90;;;;;;5182886;28;20196;-51
2022/11/14 06:19:20;;;;;;;172.50;53.27;;;5.50;99.90;;;;;;5171547;28;20223;-48
2022/11/14 06:21:51;;;;;;;183.83;53.97;;;5.60;99.90;;;;;;5181557;28;20190;-46
2022/11/14 06:24:22;;;;;;;165.23;53.30;;;5.50;99.90;;;;;;5178740;28;20212;-47
2022/11/14 06:26:53;;;;;;;170.83;56.03;;;5.60;99.90;;;;;;5188192;28;20464;-47
2022/11/14 06:29:24;;;;;;;180.80;55.07;;;5.60;99.90;;;;;;5185356;28;20205;-47
2022/11/14 06:31:55;;;;;;;180.47;55.27;;;5.60;99.90;;;;;;5186496;28;20456;-48
2022/11/14 06:34:26;;;;;;;178.00;54.80;;;5.60;99.90;;;;;;5186032;28;20264;-48
2022/11/14 06:36:57;;;;;;;183.13;55.90;;;5.60;99.90;;;;;;5183635;28;20764;-46
2022/11/14 06:39:27;;;;;;;176.17;56.70;;;5.60;99.90;;;;;;5179089;28;20558;-51
2022/11/14 06:41:58;;;;;;;172.30;55.97;;;5.60;99.90;;;;;;5167390;28;20187;-47
2022/11/14 06:44:29;;;;;;;179.13;54.47;;;5.50;99.90;;;;;;5168569;28;20288;-48
2022/11/14 06:47:00;;;;;;;176.53;55.40;;;5.60;99.90;;;;;;5186099;28;20473;-46
2022/11/14 06:49:31;;;;;;;187.03;56.23;;;5.60;99.90;;;;;;5185343;28;20457;-48
2022/11/14 06:52:02;;;;;;;169.93;51.33;;;5.60;99.90;;;;;;5185716;28;20654;-48
2022/11/14 06:54:33;;;;;;;163.30;52.77;;;5.60;99.90;;;;;;5184339;28;20532;-47
2022/11/14 06:57:05;;;;;;;178.00;52.90;;;5.60;99.90;;;;;;5186236;28;20788;-46
2022/11/14 06:59:38;;;;;;;151.23;54.10;;;5.50;99.90;;;;;;5185309;28;20961;-47
2022/11/14 07:02:11;;;;;;;159.90;53.03;;;5.60;99.90;;;;;;5177000;28;20868;-50
2022/11/14 07:04:42;;;;;;;172.17;54.10;;;5.60;99.90;;;;;;5184224;28;20476;-48
2022/11/14 07:07:13;;;;;;;169.20;55.03;;;5.60;99.90;;;;;;5184581;28;20489;-47
2022/11/14 07:09:44;;;;;;;158.60;52.43;;;5.60;99.90;;;;;;5186268;28;20561;-47
2022/11/14 07:12:15;;;;;;;167.47;52.60;;;5.60;99.90;;;;;;5179546;28;20251;-47
2022/11/14 07:14:46;;;;;;;169.67;53.73;;;5.70;99.90;;;;;;5183658;28;20476;-48
2022/11/14 07:17:16;;;;;;;151.20;51.90;;;5.70;99.90;;;;;;5183243;28;20518;-49
2022/11/14 07:19:47;;;;;;;168.90;54.60;;;5.70;99.90;;;;;;5182820;28;20228;-50
2022/11/14 07:22:18;;;;;;;165.50;53.57;;;5.80;99.90;;;;;;5184668;28;20292;-46
2022/11/14 07:24:49;;;;;;;184.03;53.40;;;5.70;99.90;;;;;;5182851;28;20244;-48
2022/11/14 07:27:20;;;;;;;148.70;50.37;;;5.80;99.90;;;;;;5182759;28;20201;-47
2022/11/14 07:29:53;;;;;;;142.60;51.60;;;5.80;99.90;;;;;;5186430;28;20207;-49
2022/11/14 07:32:24;;;;;;;150.50;52.80;;;5.80;99.90;;;;;;5178811;28;20447;-49
2022/11/14 07:34:54;;;;;;;156.67;49.80;;;5.80;99.90;;;;;;5180347;28;20848;-48
2022/11/14 07:37:25;;;;;;;173.63;51.00;;;5.90;99.90;;;;;;5182389;28;20212;-47
2022/11/14 07:39:56;;;;;;;143.90;47.50;;;6.00;99.90;;;;;;5180743;28;20213;-47
2022/11/14 07:42:30;;;;;;;143.63;49.40;;;6.00;99.90;;;;;;5187957;28;20186;-48
2022/11/14 07:45:01;;;;;;;149.33;48.87;;;6.00;99.90;;;;;;5166871;28;20201;-50
2022/11/14 07:47:31;;;;;;;133.13;47.83;;;6.10;99.90;;;;;;5184488;28;20930;-46
2022/11/14 07:50:03;;;;;;;132.33;45.87;;;6.00;99.90;;;;;;5169493;28;20674;-46
2022/11/14 07:52:34;;;;;;;125.63;47.17;;;6.10;99.90;;;;;;5188271;28;20563;-48
2022/11/14 07:55:05;;;;;;;137.03;48.33;;;6.10;99.90;;;;;;5192935;28;20550;-48
2022/11/14 07:57:36;;;;;;;137.13;47.00;;;6.10;99.90;;;;;;5192860;28;20441;-47
2022/11/14 08:00:09;;;;;;;126.97;46.67;;;6.10;99.90;;;;;;5192588;28;20461;-49
2022/11/14 08:02:40;;;;;;;129.20;47.53;;;6.20;99.90;;;;;;5192903;28;20250;-47
2022/11/14 08:05:11;;;;;;;135.53;46.53;;;6.10;99.90;;;;;;5185627;28;20537;-50
2022/11/14 08:07:42;;;;;;;123.50;44.67;;;6.10;99.90;;;;;;5182824;28;20250;-46
2022/11/14 08:10:14;;;;;;;140.97;48.13;;;6.00;99.90;;;;;;5180379;28;20420;-46
2022/11/14 08:12:45;;;;;;;153.47;51.30;;;5.90;99.90;;;;;;5194167;28;20842;-47
2022/11/14 08:15:16;;;;;;;140.67;48.40;;;5.90;99.90;;;;;;5192326;28;20503;-47
2022/11/14 08:17:46;;;;;;;151.37;49.83;;;6.00;99.90;;;;;;5192135;28;20180;-49
2022/11/14 08:20:17;;;;;;;147.30;47.73;;;6.20;99.90;;;;;;5189265;28;20277;-47
2022/11/14 08:22:48;;;;;;;137.57;47.13;;;6.40;99.90;;;;;;5187894;28;20184;-49
2022/11/14 08:25:19;;;;;;;117.80;43.90;;;6.50;99.90;;;;;;5190818;28;20776;-52
2022/11/14 08:27:51;;;;;;;117.43;43.93;;;6.60;99.90;;;;;;5190746;28;20198;-49
2022/11/14 08:30:23;;;;;;;126.03;44.57;;;6.60;99.90;;;;;;5179367;28;20245;-52
2022/11/14 08:32:54;;;;;;;134.67;45.57;;;6.60;99.90;;;;;;5176692;28;20458;-51
2022/11/14 08:35:25;;;;;;;118.60;43.23;;;6.50;99.90;;;;;;5187944;28;20907;-51
2022/11/14 08:37:56;;;;;;;130.33;44.53;;;6.40;99.90;;;;;;5186158;28;20841;-51
2022/11/14 08:40:26;;;;;;;138.03;46.13;;;6.20;99.90;;;;;;5188853;28;20443;-50
2022/11/14 08:42:59;;;;;;;122.10;41.20;;;6.20;99.90;;;;;;5188063;28;20188;-52
2022/11/14 08:45:30;;;;;;;139.47;45.97;;;6.30;99.90;;;;;;5187625;28;20213;-51
2022/11/14 08:48:00;;;;;;;127.87;43.37;;;6.30;99.90;;;;;;5187272;28;20466;-50
2022/11/14 08:50:31;;;;;;;132.83;43.43;;;6.30;99.90;;;;;;5178596;28;20683;-50
2022/11/14 08:53:02;;;;;;;123.70;43.43;;;6.30;99.90;;;;;;5176813;28;20187;-50
2022/11/14 08:55:33;;;;;;;126.33;45.13;;;6.40;99.90;;;;;;5181197;28;20585;-53
2022/11/14 08:58:03;;;;;;;129.43;45.87;;;6.50;99.90;;;;;;5180863;28;20246;-52
2022/11/14 09:00:34;;;;;;;116.43;43.10;;;6.60;99.90;;;;;;5186679;28;20198;-52
2022/11/14 09:03:14;;;;;;;111.50;41.77;;;6.60;99.90;;;;;;5180638;28;20637;-51
2022/11/14 09:05:51;;;;;;;129.83;44.17;;;6.60;99.90;;;;;;5186159;28;20179;-54
2022/11/14 09:08:22;;;;;;;113.40;41.20;;;6.60;99.90;;;;;;5185697;28;20458;-52
2022/11/14 09:10:52;;;;;;;122.13;43.40;;;6.60;99.90;;;;;;5183412;28;20524;-51
2022/11/14 09:13:23;;;;;;;115.23;42.23;;;6.60;99.90;;;;;;5185780;28;20550;-51
2022/11/14 09:15:54;;;;;;;117.40;41.40;;;6.50;99.90;;;;;;5183081;28;20179;-51
2022/11/14 09:18:25;;;;;;;120.17;43.10;;;6.50;99.90;;;;;;5175004;28;20711;-51
2022/11/14 09:21:14;;;;;;;117.47;39.67;;;6.40;99.90;;;;;;5186440;28;20179;-51
2022/11/14 09:23:48;;;;;;;115.00;38.50;;;6.50;99.90;;;;;;5172116;28;20428;-52
2022/11/14 09:26:18;;;;;;;107.60;38.73;;;6.50;99.90;;;;;;5181695;28;20506;-52
2022/11/14 09:28:49;;;;;;;109.27;42.10;;;6.50;99.90;;;;;;5181826;28;20972;-50
2022/11/14 09:31:20;;;;;;;117.73;40.77;;;6.60;99.90;;;;;;5182868;28;20619;-51
2022/11/14 09:33:51;;;;;;;107.77;41.30;;;6.60;99.90;;;;;;5194587;28;20585;-51
2022/11/14 09:36:22;;;;;;;111.70;42.37;;;6.60;99.90;;;;;;5175783;28;20442;-51
2022/11/14 09:38:53;;;;;;;106.90;41.03;;;6.60;99.90;;;;;;5187248;28;20562;-50
2022/11/14 09:41:42;;;;;;;106.83;40.77;;;6.60;99.90;;;;;;5184246;28;20462;-51
2022/11/14 09:44:15;;;;;;;106.63;38.97;;;6.60;99.90;;;;;;5182327;28;20204;-52
2022/11/14 09:47:02;;;;;;;98.67;39.13;;;6.70;99.90;;;;;;5182389;28;20801;-51
2022/11/14 09:49:41;;;;;;;110.77;37.37;;;6.70;99.90;;;;;;5184915;28;20462;-51
2022/11/14 09:52:28;;;;;;;103.13;35.33;;;6.90;99.90;;;;;;5180927;28;20823;-52
2022/11/14 09:55:27;;;;;;;104.27;37.20;;;6.90;99.90;;;;;;5178783;28;20505;-51
2022/11/14 09:58:01;;;;;;;85.27;35.30;;;7.00;99.90;;;;;;5181991;28;20550;-50
2022/11/14 10:00:50;;;;;;;96.70;37.53;;;7.10;99.90;;;;;;5168932;28;20487;-53
2022/11/14 10:03:30;;;;;;;81.83;32.40;;;7.20;99.90;;;;;;5183957;28;20531;-53
2022/11/14 10:06:29;;;;;;;67.73;32.20;;;7.40;99.90;;;;;;5181281;28;20446;-51
2022/11/14 10:09:15;;;;;;;77.03;32.00;;;7.50;99.90;;;;;;5189672;28;20458;-52
2022/11/14 10:12:01;;;;;;;76.37;31.57;;;7.60;99.90;;;;;;5184410;28;20439;-52
2022/11/14 10:14:53;;;;;;;92.10;34.63;;;7.70;99.90;;;;;;5169535;28;20614;-52
2022/11/14 10:18:02;;;;;;;89.40;35.40;;;7.70;99.90;;;;;;5185687;28;20514;-52
2022/11/14 10:20:45;;;;;;;80.53;34.43;;;7.70;99.90;;;;;;5192626;23;20530;-47
2022/11/14 10:24:11;;;;;;;76.13;34.37;;;7.80;99.90;;;;;;5183222;28;20436;-49
2022/11/14 10:26:56;;;;;;;71.00;32.67;;;8.00;99.90;;;;;;5164896;28;20432;-50
2022/11/14 10:29:32;;;;;;;70.13;30.30;;;8.00;99.90;;;;;;5179928;28;20443;-49
2022/11/14 10:32:33;;;;;;;84.17;33.80;;;8.10;99.90;;;;;;5182535;28;20466;-48
2022/11/14 10:35:12;;;;;;;74.97;30.03;;;8.20;99.90;;;;;;5170304;28;20471;-51
2022/11/14 10:38:16;;;;;;;80.87;33.20;;;8.20;99.90;;;;;;5181142;28;20847;-49
2022/11/14 10:40:50;;;;;;;76.87;33.20;;;8.30;99.90;;;;;;5177727;28;20862;-50
2022/11/14 10:43:39;;;;;;;74.67;32.23;;;8.30;99.90;;;;;;5186720;28;20454;-50
2022/11/14 10:46:21;;;;;;;86.03;31.73;;;8.30;99.90;;;;;;5185046;28;20466;-50
2022/11/14 10:48:53;;;;;;;76.77;32.37;;;8.30;99.90;;;;;;5184549;28;20485;-50
2022/11/14 10:51:37;;;;;;;69.47;31.33;;;8.40;99.90;;;;;;5177161;28;20514;-49
2022/11/14 10:54:24;;;;;;;73.90;30.80;;;8.40;99.90;;;;;;5179370;28;20538;-49
2022/11/14 10:56:54;;;;;;;67.60;31.73;;;8.40;99.90;;;;;;5183860;28;20442;-51
2022/11/14 10:59:26;;;;;;;65.47;30.00;;;8.40;99.90;;;;;;5179724;28;20471;-49
2022/11/14 11:01:57;;;;;;;76.20;33.30;;;8.40;99.90;;;;;;5176001;28;20173;-50
2022/11/14 11:04:33;;;;;;;69.33;31.33;;;8.40;99.90;;;;;;5185376;28;20902;-49
2022/11/14 11:07:07;;;;;;;77.33;31.03;;;8.40;99.90;;;;;;5167919;28;20485;-51
2022/11/14 11:12:44;;;;;;;70.73;30.50;;;8.50;99.90;;;;;;5176689;28;21008;-49
2022/11/14 11:15:17;;;;;;;64.97;30.10;;;8.60;99.90;;;;;;5182972;28;20462;-50
2022/11/14 11:18:05;;;;;;;68.23;30.20;;;8.60;99.90;;;;;;5175419;28;20444;-49
2022/11/14 11:20:40;;;;;;;64.87;31.53;;;8.70;99.90;;;;;;5174238;28;20849;-49
2022/11/14 11:23:11;;;;;;;70.50;28.90;;;8.70;99.90;;;;;;5176831;28;20438;-50
2022/11/14 11:25:42;;;;;;;78.90;30.60;;;8.70;99.90;;;;;;5175865;28;20419;-50
2022/11/14 11:28:20;;;;;;;65.40;29.07;;;8.70;99.90;;;;;;5183033;28;20180;-51
2022/11/14 11:30:56;;;;;;;60.60;29.40;;;8.70;99.90;;;;;;5178422;28;20318;-50
2022/11/14 11:33:29;;;;;;;62.17;27.50;;;8.80;99.90;;;;;;5178190;28;20904;-48
2022/11/14 11:36:14;;;;;;;61.57;27.90;;;8.80;99.90;;;;;;5174811;28;20498;-50
2022/11/14 11:38:46;;;;;;;69.17;28.63;;;8.90;99.90;;;;;;5181561;28;20458;-48
2022/11/14 11:41:34;;;;;;;59.10;27.60;;;9.00;99.90;;;;;;5181001;28;20443;-50
2022/11/14 11:44:09;;;;;;;64.13;28.87;;;9.00;99.90;;;;;;5174974;28;20440;-49
2022/11/14 11:46:52;;;;;;;62.40;28.17;;;8.90;99.90;;;;;;5183683;28;20425;-49
2022/11/14 11:49:51;;;;;;;58.47;28.57;;;9.00;99.90;;;;;;5181378;28;20724;-49
2022/11/14 11:53:15;;;;;;;67.27;28.50;;;9.10;99.90;;;;;;5179310;28;20415;-51
2022/11/14 11:55:51;;;;;;;58.93;27.23;;;9.10;99.90;;;;;;5104630;29;20441;-49
2022/11/14 11:59:09;;;;;;;54.90;28.47;;;9.20;99.90;;;;;;5174348;28;20423;-50
2022/11/14 12:01:39;;;;;;;54.93;28.03;;;9.20;99.90;;;;;;5132319;28;20426;-50
2022/11/14 12:04:10;;;;;;;63.93;25.93;;;9.20;99.90;;;;;;5138504;28;20442;-49
2022/11/14 12:06:53;;;;;;;51.87;26.77;;;9.20;99.90;;;;;;5164036;28;20653;-49
2022/11/14 12:09:32;;;;;;;62.30;28.30;;;9.20;99.90;;;;;;5183301;28;20208;-51
2022/11/14 12:12:20;;;;;;;56.83;26.23;;;9.20;99.90;;;;;;5180006;28;20439;-50
2022/11/14 12:15:10;;;;;;;59.13;28.00;;;9.20;99.90;;;;;;5175380;28;20467;-49
2022/11/14 12:18:07;;;;;;;49.57;25.00;;;9.30;99.90;;;;;;5180640;28;20443;-49
2022/11/14 12:20:50;;;;;;;60.17;27.90;;;9.30;99.90;;;;;;5176819;28;20467;-54
2022/11/14 12:23:39;;;;;;;52.90;27.03;;;9.30;99.90;;;;;;5178049;28;20472;-48
2022/11/14 12:26:52;;;;;;;49.83;25.27;;;9.40;99.90;;;;;;5176331;28;20518;-47
2022/11/14 12:29:49;;;;;;;58.10;27.10;;;9.50;99.90;;;;;;5176849;28;20459;-47
2022/11/14 12:32:32;;;;;;;53.47;26.43;;;9.50;99.90;;;;;;5179033;28;20804;-48
2022/11/14 12:35:06;;;;;;;48.00;26.03;;;9.60;99.90;;;;;;5172850;28;20518;-47
2022/11/14 12:37:43;;;;;;;52.90;25.83;;;9.60;99.90;;;;;;5181483;28;20424;-46
2022/11/14 12:40:35;;;;;;;51.03;24.20;;;9.80;99.90;;;;;;5184647;28;20443;-47
2022/11/14 12:43:27;;;;;;;48.03;22.07;;;9.70;99.90;;;;;;5185249;28;20427;-48
2022/11/14 12:46:00;;;;;;;41.97;22.57;;;9.80;99.90;;;;;;5170909;28;20430;-48
2022/11/14 12:48:32;;;;;;;42.90;22.77;;;9.80;99.90;;;;;;5180921;28;20550;-47
2022/11/14 12:51:28;;;;;;;45.93;22.30;;;9.90;99.90;;;;;;5181236;28;20431;-47
2022/11/14 12:53:58;;;;;;;41.70;23.10;;;10.00;99.90;;;;;;5187172;28;20463;-47
2022/11/14 12:56:31;;;;;;;37.93;23.23;;;10.10;99.90;;;;;;5187207;28;20435;-48
2022/11/14 12:59:25;;;;;;;45.27;22.03;;;10.10;99.90;;;;;;5187228;28;20200;-47
2022/11/14 13:02:16;;;;;;;39.73;20.53;;;10.10;99.90;;;;;;5187344;28;20489;-48
2022/11/14 13:04:58;;;;;;;47.47;23.00;;;10.10;99.90;;;;;;5170353;28;20416;-53
2022/11/14 13:07:44;;;;;;;41.57;22.43;;;10.20;99.90;;;;;;5185285;28;20461;-47
2022/11/14 13:10:30;;;;;;;36.73;21.13;;;10.30;99.90;;;;;;5180303;28;20470;-49